Time;durP1;ratioP1;P1;durP2;ratioP2;P2;SDS_P1;SDS_P2;PMS_P1;PMS_P2;Temp;Humidity;BMP_temperature;BMP_pressure;BME280_temperature;BME280_humidity;BME280_pressure;Samples;Min_cycle;Max_cycle;Signal;HPM_P1;HPM_P2
2021/10/14 00:00:49;;;;;;;7.72;5.42;;;25.70;99.90;;;;;;1902970;73;21204;-79
2021/10/14 00:03:21;;;;;;;6.53;4.70;;;25.80;99.90;;;;;;1897750;74;21162;-79
2021/10/14 00:05:52;;;;;;;6.20;5.20;;;25.80;99.90;;;;;;1911812;73;21179;-79
2021/10/14 00:08:23;;;;;;;6.90;5.67;;;25.80;99.90;;;;;;1869931;74;21166;-79
2021/10/14 00:10:53;;;;;;;8.85;5.35;;;25.80;99.90;;;;;;1867889;74;21232;-80
2021/10/14 00:13:24;;;;;;;7.33;5.92;;;25.80;99.90;;;;;;1894121;73;21146;-80
2021/10/14 00:15:55;;;;;;;6.47;5.15;;;25.80;99.90;;;;;;1895769;73;21660;-80
2021/10/14 00:18:26;;;;;;;8.73;5.80;;;25.80;99.90;;;;;;1898636;73;21154;-80
2021/10/14 00:20:58;;;;;;;10.60;5.25;;;25.80;99.90;;;;;;1895713;73;21204;-80
2021/10/14 00:23:29;;;;;;;7.45;5.40;;;25.80;99.90;;;;;;1911639;73;21162;-80
2021/10/14 00:26:00;;;;;;;7.70;5.28;;;25.80;99.90;;;;;;1888665;73;21642;-80
2021/10/14 00:28:31;;;;;;;10.95;5.78;;;25.70;99.90;;;;;;1913524;73;21588;-79
2021/10/14 00:31:02;;;;;;;6.08;5.10;;;25.80;99.90;;;;;;1874701;75;21552;-79
2021/10/14 00:33:34;;;;;;;7.22;4.30;;;25.80;99.90;;;;;;1917074;73;21208;-79
2021/10/14 00:36:05;;;;;;;7.70;5.28;;;25.80;99.90;;;;;;1918043;73;21152;-80
2021/10/14 00:38:36;;;;;;;10.60;5.58;;;25.80;99.90;;;;;;1914128;73;21154;-80
2021/10/14 00:41:15;;;;;;;8.73;5.65;;;25.70;99.90;;;;;;1915496;73;21169;-80
2021/10/14 00:43:47;;;;;;;7.33;5.67;;;25.70;99.90;;;;;;1906979;74;21240;-80
2021/10/14 00:46:23;;;;;;;9.05;5.78;;;25.60;99.90;;;;;;1888070;73;21614;-79
2021/10/14 00:48:53;;;;;;;6.10;4.75;;;25.60;99.90;;;;;;1909523;73;21154;-79
2021/10/14 00:51:24;;;;;;;6.37;5.05;;;25.50;99.90;;;;;;1870185;74;22569;-78
2021/10/14 00:53:56;;;;;;;6.08;4.70;;;25.50;99.90;;;;;;1880877;75;21289;-79
2021/10/14 00:56:27;;;;;;;6.60;4.37;;;25.50;99.90;;;;;;1894176;74;21218;-79
2021/10/14 00:58:58;;;;;;;6.97;4.83;;;25.50;99.90;;;;;;1901281;74;21126;-79
2021/10/14 01:01:29;;;;;;;6.85;5.05;;;25.50;99.90;;;;;;1893104;73;21604;-79
2021/10/14 01:04:04;;;;;;;6.10;4.67;;;25.50;99.90;;;;;;1885458;74;21230;-79
2021/10/14 01:06:35;;;;;;;7.42;4.97;;;25.50;99.90;;;;;;1891571;73;21604;-80
2021/10/14 01:09:06;;;;;;;5.45;4.53;;;25.50;99.90;;;;;;1895362;74;21202;-80
2021/10/14 01:11:37;;;;;;;7.37;5.37;;;25.50;99.90;;;;;;1892168;74;21119;-81
2021/10/14 01:14:08;;;;;;;8.50;5.30;;;25.60;99.90;;;;;;1916535;73;21503;-80
2021/10/14 01:16:40;;;;;;;6.85;4.75;;;25.60;99.90;;;;;;1883074;74;21171;-81
2021/10/14 01:19:13;;;;;;;7.22;4.78;;;25.60;99.90;;;;;;1857915;74;21667;-73
2021/10/14 01:21:44;;;;;;;6.90;4.33;;;25.60;99.90;;;;;;1863284;74;21243;-73
2021/10/14 01:24:15;;;;;;;8.75;5.05;;;25.60;99.90;;;;;;1869703;74;21154;-72
2021/10/14 01:26:46;;;;;;;7.62;4.92;;;25.60;99.90;;;;;;1905869;73;21492;-73
2021/10/14 01:29:17;;;;;;;8.38;5.10;;;25.60;99.90;;;;;;1912693;72;21102;-73
2021/10/14 01:31:48;;;;;;;8.93;4.50;;;25.60;99.90;;;;;;1919803;72;21186;-73
2021/10/14 01:34:18;;;;;;;6.62;4.20;;;25.60;99.90;;;;;;1920528;72;21124;-73
2021/10/14 01:36:49;;;;;;;6.72;5.03;;;25.60;99.90;;;;;;1919913;72;21767;-73
2021/10/14 01:39:20;;;;;;;6.05;4.25;;;25.50;99.90;;;;;;1911705;73;21295;-73
2021/10/14 01:41:52;;;;;;;5.97;4.20;;;25.60;99.90;;;;;;1879130;75;21677;-72
2021/10/14 01:44:22;;;;;;;5.33;3.80;;;25.60;99.90;;;;;;1875741;75;21156;-72
2021/10/14 01:46:53;;;;;;;6.95;4.75;;;25.50;99.90;;;;;;1885916;74;21211;-72
2021/10/14 01:49:24;;;;;;;6.33;4.58;;;25.60;99.90;;;;;;1869069;74;21433;-72
2021/10/14 01:51:55;;;;;;;8.25;5.20;;;25.60;99.90;;;;;;1897673;73;21612;-73
2021/10/14 01:54:26;;;;;;;5.78;4.50;;;25.60;99.90;;;;;;1921923;73;21280;-72
2021/10/14 01:56:57;;;;;;;8.40;4.55;;;25.60;99.90;;;;;;1923695;73;21126;-73
2021/10/14 01:59:27;;;;;;;7.42;4.87;;;25.60;99.90;;;;;;1901608;73;21197;-72
2021/10/14 02:01:58;;;;;;;6.15;4.58;;;25.70;99.90;;;;;;1900189;72;21225;-73
2021/10/14 02:04:29;;;;;;;7.60;4.62;;;25.80;99.90;;;;;;1921530;73;21099;-72
2021/10/14 02:07:00;;;;;;;6.53;4.78;;;25.80;99.90;;;;;;1918754;73;21749;-73
2021/10/14 02:09:31;;;;;;;7.87;4.10;;;25.80;99.90;;;;;;1918815;72;21129;-73
2021/10/14 02:12:02;;;;;;;6.42;4.75;;;25.80;99.90;;;;;;1920587;73;21149;-73
2021/10/14 02:14:33;;;;;;;8.78;4.12;;;25.90;99.90;;;;;;1922800;73;21187;-73
2021/10/14 02:17:04;;;;;;;6.85;4.28;;;26.00;99.90;;;;;;1875502;74;21632;-73
2021/10/14 02:19:35;;;;;;;6.85;4.85;;;26.10;99.90;;;;;;1921920;73;21154;-73
2021/10/14 02:22:05;;;;;;;6.08;4.70;;;26.10;99.90;;;;;;1861610;75;21205;-72
2021/10/14 02:24:36;;;;;;;7.42;4.08;;;26.10;99.90;;;;;;1891566;74;21126;-71
2021/10/14 02:27:07;;;;;;;6.80;4.35;;;26.10;99.90;;;;;;1899783;74;21177;-72
2021/10/14 02:29:38;;;;;;;7.65;4.37;;;26.20;99.90;;;;;;1881008;74;21090;-72
2021/10/14 02:32:08;;;;;;;6.28;4.28;;;26.20;99.90;;;;;;1899092;74;21799;-71
2021/10/14 02:34:39;;;;;;;7.75;4.53;;;26.20;99.90;;;;;;1893088;74;21186;-74
2021/10/14 02:37:10;;;;;;;6.78;4.65;;;26.30;99.90;;;;;;1892710;74;21139;-71
2021/10/14 02:39:41;;;;;;;5.85;4.35;;;26.30;99.90;;;;;;1899766;74;21229;-72
2021/10/14 02:42:11;;;;;;;8.08;4.35;;;26.30;99.90;;;;;;1898210;74;21127;-73
2021/10/14 02:44:42;;;;;;;7.60;5.15;;;26.30;99.90;;;;;;1899763;74;21127;-72
2021/10/14 02:47:13;;;;;;;5.42;3.95;;;26.30;99.90;;;;;;1905085;74;22264;-72
2021/10/14 02:49:44;;;;;;;6.25;4.00;;;26.40;99.90;;;;;;1902244;73;21171;-73
2021/10/14 02:52:15;;;;;;;7.65;4.20;;;26.30;99.90;;;;;;1888592;74;21653;-73
2021/10/14 02:54:46;;;;;;;6.95;4.55;;;26.30;99.90;;;;;;1893576;74;21208;-73
2021/10/14 02:57:17;;;;;;;6.03;4.85;;;26.30;99.90;;;;;;1869820;75;21208;-73
2021/10/14 02:59:47;;;;;;;6.12;4.67;;;26.30;99.90;;;;;;1888414;74;21106;-73
2021/10/14 03:02:18;;;;;;;7.78;4.97;;;26.30;99.90;;;;;;1867012;74;21093;-72
2021/10/14 03:04:49;;;;;;;7.45;4.45;;;26.30;99.90;;;;;;1900171;73;21127;-72
2021/10/14 03:07:20;;;;;;;6.97;4.58;;;26.30;99.90;;;;;;1874519;76;21139;-73
2021/10/14 03:09:51;;;;;;;11.60;7.67;;;26.30;99.90;;;;;;1923292;73;21601;-73
2021/10/14 03:12:22;;;;;;;6.37;4.92;;;26.30;99.90;;;;;;1916454;74;21198;-72
2021/10/14 03:14:53;;;;;;;5.12;3.87;;;26.30;99.90;;;;;;1937658;73;21177;-72
2021/10/14 03:17:24;;;;;;;13.93;12.28;;;26.40;99.90;;;;;;1930142;72;21610;-71
2021/10/14 03:19:55;;;;;;;6.53;4.70;;;26.40;99.90;;;;;;1879860;74;21263;-71
2021/10/14 03:22:25;;;;;;;8.15;4.08;;;26.50;99.90;;;;;;1906013;74;21229;-72
2021/10/14 03:24:56;;;;;;;6.12;4.67;;;26.50;99.90;;;;;;1879493;74;21222;-72
2021/10/14 03:27:27;;;;;;;6.35;4.12;;;26.50;99.90;;;;;;1878749;74;21119;-72
2021/10/14 03:29:58;;;;;;;7.53;4.60;;;26.60;99.90;;;;;;1884667;74;21531;-72
2021/10/14 03:32:29;;;;;;;5.78;4.45;;;26.60;99.90;;;;;;1885181;74;21244;-72
2021/10/14 03:35:00;;;;;;;5.80;4.15;;;26.60;99.90;;;;;;1877270;74;21587;-72
2021/10/14 03:37:31;;;;;;;5.42;4.28;;;26.70;99.90;;;;;;1883099;74;21200;-72
2021/10/14 03:40:02;;;;;;;5.95;4.35;;;26.80;99.90;;;;;;1878296;74;21150;-71
2021/10/14 03:42:32;;;;;;;6.05;4.12;;;26.80;99.90;;;;;;1885588;74;21258;-71
2021/10/14 03:45:04;;;;;;;4.85;3.65;;;26.90;99.90;;;;;;1882477;75;21886;-71
2021/10/14 03:47:35;;;;;;;4.67;3.85;;;26.80;99.90;;;;;;1880058;74;21209;-72
2021/10/14 03:50:06;;;;;;;4.72;3.80;;;26.80;99.90;;;;;;1871777;74;21639;-73
2021/10/14 03:52:37;;;;;;;6.20;4.15;;;26.80;99.90;;;;;;1886661;74;21876;-72
2021/10/14 03:55:09;;;;;;;5.83;4.22;;;26.90;99.90;;;;;;1896695;74;21547;-71
2021/10/14 03:57:39;;;;;;;7.08;4.22;;;26.90;99.90;;;;;;1894973;74;21118;-72
2021/10/14 04:00:11;;;;;;;5.17;3.98;;;26.90;99.90;;;;;;1896432;74;21617;-71
2021/10/14 04:02:42;;;;;;;6.25;4.10;;;26.90;99.90;;;;;;1901499;73;21104;-72
2021/10/14 04:05:13;;;;;;;6.55;4.08;;;26.90;99.90;;;;;;1898567;74;21724;-71
2021/10/14 04:07:44;;;;;;;5.37;3.90;;;26.90;99.90;;;;;;1913118;74;21547;-73
2021/10/14 04:10:14;;;;;;;6.47;4.42;;;26.90;99.90;;;;;;1875557;75;21094;-73
2021/10/14 04:12:46;;;;;;;6.40;3.90;;;27.00;99.90;;;;;;1861759;75;21107;-73
2021/10/14 04:15:18;;;;;;;5.85;4.05;;;26.90;99.90;;;;;;1904832;74;21137;-73
2021/10/14 04:17:48;;;;;;;6.22;3.90;;;26.90;99.90;;;;;;1883347;74;21193;-73
2021/10/14 04:20:19;;;;;;;7.22;4.55;;;26.90;99.90;;;;;;1879906;75;21210;-73
2021/10/14 04:22:51;;;;;;;9.60;4.70;;;26.90;99.90;;;;;;1890026;73;21088;-73
2021/10/14 04:25:22;;;;;;;6.60;4.42;;;26.80;99.90;;;;;;1889268;73;21192;-73
2021/10/14 04:27:53;;;;;;;5.55;4.10;;;26.70;99.90;;;;;;1901722;74;21151;-73
2021/10/14 04:30:24;;;;;;;6.67;4.30;;;26.70;99.90;;;;;;1908372;73;21091;-71
2021/10/14 04:32:55;;;;;;;6.58;3.80;;;26.60;99.90;;;;;;1898029;74;21254;-73
2021/10/14 04:35:26;;;;;;;5.03;3.75;;;26.50;99.90;;;;;;1894052;74;21135;-73
2021/10/14 04:37:57;;;;;;;4.80;4.10;;;26.40;99.90;;;;;;1904784;73;21230;-73
2021/10/14 04:40:28;;;;;;;4.85;4.03;;;26.30;99.90;;;;;;1896451;73;21642;-72
2021/10/14 04:42:59;;;;;;;5.05;3.87;;;26.40;99.90;;;;;;1909355;73;21219;-72
2021/10/14 04:45:30;;;;;;;5.62;4.10;;;26.40;99.90;;;;;;1854203;75;21069;-72
2021/10/14 04:48:01;;;;;;;5.25;4.08;;;26.40;99.90;;;;;;1884820;74;21135;-71
2021/10/14 04:50:31;;;;;;;5.28;4.05;;;26.50;99.90;;;;;;1909327;74;21231;-72
2021/10/14 04:53:02;;;;;;;8.78;4.33;;;26.50;99.90;;;;;;1908873;74;21175;-72
2021/10/14 04:55:33;;;;;;;5.95;3.65;;;26.60;99.90;;;;;;1879891;74;21642;-72
2021/10/14 04:58:04;;;;;;;5.10;3.50;;;26.60;99.90;;;;;;1900781;74;21223;-72
2021/10/14 05:00:35;;;;;;;8.03;4.20;;;26.70;99.90;;;;;;1900748;74;21171;-72
2021/10/14 05:03:07;;;;;;;7.03;3.87;;;26.80;99.90;;;;;;1908891;74;21169;-72
2021/10/14 05:05:39;;;;;;;5.33;4.05;;;26.80;99.90;;;;;;1916173;73;21250;-72
2021/10/14 05:08:10;;;;;;;6.08;4.47;;;26.90;99.90;;;;;;1912553;74;21177;-73
2021/10/14 05:10:41;;;;;;;5.80;4.00;;;26.90;99.90;;;;;;1907799;74;22792;-73
2021/10/14 05:13:12;;;;;;;7.25;3.85;;;27.00;99.90;;;;;;1904463;74;21126;-73
2021/10/14 05:15:44;;;;;;;5.62;3.47;;;27.10;99.90;;;;;;1908303;74;21974;-73
2021/10/14 05:18:15;;;;;;;6.08;3.75;;;27.10;99.90;;;;;;1903090;74;21177;-72
2021/10/14 05:20:46;;;;;;;5.65;4.22;;;27.20;99.90;;;;;;1901248;74;21246;-72
2021/10/14 05:23:17;;;;;;;6.92;3.72;;;27.20;99.60;;;;;;1907174;74;21659;-72
2021/10/14 05:25:49;;;;;;;4.92;3.60;;;27.20;99.60;;;;;;1910774;73;21724;-72
2021/10/14 05:28:19;;;;;;;5.03;3.62;;;27.30;99.80;;;;;;1904705;74;21133;-72
2021/10/14 05:30:50;;;;;;;4.28;3.60;;;27.30;99.90;;;;;;1915245;74;21086;-72
2021/10/14 05:33:21;;;;;;;5.92;4.10;;;27.30;99.50;;;;;;1913540;74;21166;-71
2021/10/14 05:35:52;;;;;;;5.90;4.17;;;27.30;99.70;;;;;;1911277;73;21594;-71
2021/10/14 05:38:23;;;;;;;5.92;4.03;;;27.30;99.90;;;;;;1895028;73;21642;-72
2021/10/14 05:40:55;;;;;;;4.47;3.42;;;27.20;99.90;;;;;;1883288;74;21725;-72
2021/10/14 05:43:26;;;;;;;5.37;3.58;;;27.20;99.90;;;;;;1867197;75;21124;-72
2021/10/14 05:45:56;;;;;;;5.42;3.83;;;27.00;99.90;;;;;;1903166;74;21626;-72
2021/10/14 05:48:28;;;;;;;5.50;3.65;;;27.00;99.90;;;;;;1926494;73;22007;-73
2021/10/14 05:50:58;;;;;;;5.05;3.60;;;26.90;99.90;;;;;;1919688;73;21572;-72
2021/10/14 05:53:29;;;;;;;5.58;3.92;;;26.90;99.80;;;;;;1871120;75;21591;-72
2021/10/14 05:56:00;;;;;;;5.97;3.83;;;26.80;99.90;;;;;;1922636;73;21567;-72
2021/10/14 05:58:31;;;;;;;6.92;4.03;;;26.80;99.90;;;;;;1912938;74;21268;-71
2021/10/14 06:01:02;;;;;;;7.55;3.95;;;26.70;99.90;;;;;;1924959;74;21150;-71
2021/10/14 06:03:34;;;;;;;5.10;4.00;;;26.60;99.90;;;;;;1889882;74;21138;-71
2021/10/14 06:06:05;;;;;;;6.58;3.95;;;26.60;99.90;;;;;;1908799;74;21158;-71
2021/10/14 06:08:35;;;;;;;8.48;4.08;;;26.60;99.90;;;;;;1923812;74;21146;-72
2021/10/14 06:11:06;;;;;;;8.63;4.00;;;26.60;99.90;;;;;;1908712;74;21123;-72
2021/10/14 06:13:38;;;;;;;4.33;3.55;;;26.60;99.90;;;;;;1921960;73;21149;-72
2021/10/14 06:16:09;;;;;;;5.92;4.12;;;26.60;99.90;;;;;;1916642;73;21618;-71
2021/10/14 06:18:40;;;;;;;5.53;3.62;;;26.60;99.90;;;;;;1934367;73;21091;-72
2021/10/14 06:21:10;;;;;;;6.53;3.83;;;26.70;99.90;;;;;;1930358;73;21513;-72
2021/10/14 06:23:41;;;;;;;4.70;3.70;;;26.70;99.90;;;;;;1957623;72;21620;-72
2021/10/14 06:26:12;;;;;;;5.22;3.83;;;26.70;99.90;;;;;;1911479;73;21174;-72
2021/10/14 06:28:43;;;;;;;6.95;3.98;;;26.90;99.90;;;;;;1936415;72;21079;-71
2021/10/14 06:31:14;;;;;;;5.70;4.17;;;26.90;99.90;;;;;;1869572;74;21089;-72
2021/10/14 06:33:45;;;;;;;6.22;3.72;;;27.00;99.90;;;;;;1899560;74;21198;-72
2021/10/14 06:36:16;;;;;;;5.85;4.40;;;27.00;99.90;;;;;;1891811;74;21179;-72
2021/10/14 06:38:46;;;;;;;5.55;4.53;;;27.10;99.90;;;;;;1874167;73;21218;-72
2021/10/14 06:41:18;;;;;;;7.80;4.25;;;27.10;99.90;;;;;;1924370;73;21626;-72
2021/10/14 06:43:49;;;;;;;4.87;3.77;;;27.20;99.90;;;;;;1904001;73;21163;-73
2021/10/14 06:46:20;;;;;;;5.55;3.70;;;27.20;99.90;;;;;;1908389;73;21155;-72
2021/10/14 06:48:51;;;;;;;5.05;4.42;;;27.10;99.90;;;;;;1898426;73;21263;-72
2021/10/14 06:51:22;;;;;;;10.23;6.10;;;27.20;99.90;;;;;;1908130;74;21125;-72
2021/10/14 06:53:52;;;;;;;6.58;4.62;;;27.30;99.90;;;;;;1928368;73;21139;-73
2021/10/14 06:56:23;;;;;;;7.78;4.47;;;27.40;99.90;;;;;;1907247;73;21162;-72
2021/10/14 06:58:54;;;;;;;6.33;4.05;;;27.50;99.90;;;;;;1904186;73;21518;-72
2021/10/14 07:01:25;;;;;;;6.10;3.92;;;27.50;99.90;;;;;;1893255;73;21621;-73
2021/10/14 07:03:56;;;;;;;4.87;3.70;;;27.60;99.70;;;;;;1916477;73;21142;-72
2021/10/14 07:06:27;;;;;;;5.55;3.70;;;27.60;99.60;;;;;;1870168;74;21101;-72
2021/10/14 07:08:57;;;;;;;4.55;3.55;;;27.60;99.40;;;;;;1914688;73;21230;-72
2021/10/14 07:11:31;;;;;;;5.72;3.70;;;27.60;98.90;;;;;;1872676;74;21163;-72
2021/10/14 07:14:01;;;;;;;5.50;3.72;;;27.60;98.90;;;;;;1898449;73;21747;-72
2021/10/14 07:16:32;;;;;;;5.70;3.50;;;27.70;99.30;;;;;;1888204;73;21605;-73
2021/10/14 07:19:03;;;;;;;6.62;3.22;;;27.70;98.90;;;;;;1910691;72;21209;-73
2021/10/14 07:21:33;;;;;;;7.20;4.17;;;27.70;98.70;;;;;;1905432;73;21135;-72
2021/10/14 07:24:04;;;;;;;6.05;3.40;;;27.70;98.30;;;;;;1907211;73;21531;-73
2021/10/14 07:26:35;;;;;;;5.83;3.60;;;27.70;98.70;;;;;;1908310;73;21690;-73
2021/10/14 07:29:06;;;;;;;4.97;3.50;;;27.70;98.30;;;;;;1914027;73;21609;-73
2021/10/14 07:31:37;;;;;;;5.45;3.62;;;27.60;98.70;;;;;;1910424;73;21151;-73
2021/10/14 07:34:08;;;;;;;5.80;3.83;;;27.70;98.80;;;;;;1905252;73;21174;-73
2021/10/14 07:36:39;;;;;;;5.08;3.92;;;27.70;98.30;;;;;;1896972;73;21898;-73
2021/10/14 07:39:10;;;;;;;4.60;3.50;;;27.70;98.40;;;;;;1920598;73;21147;-73
2021/10/14 07:41:41;;;;;;;5.20;3.65;;;27.60;98.20;;;;;;1903068;73;21199;-73
2021/10/14 07:44:11;;;;;;;4.72;3.60;;;27.70;98.50;;;;;;1902387;73;21234;-73
2021/10/14 07:46:42;;;;;;;6.62;3.15;;;27.70;98.60;;;;;;1886018;74;21076;-73
2021/10/14 07:49:14;;;;;;;5.22;3.40;;;27.70;98.40;;;;;;1913779;73;21146;-73
2021/10/14 07:51:45;;;;;;;5.45;3.47;;;27.70;98.40;;;;;;1881261;74;21105;-73
2021/10/14 07:54:17;;;;;;;5.17;2.98;;;27.70;98.60;;;;;;1914361;72;21106;-73
2021/10/14 07:56:47;;;;;;;4.60;3.25;;;27.80;98.30;;;;;;1904868;73;21181;-73
2021/10/14 07:59:18;;;;;;;4.67;3.15;;;27.80;98.40;;;;;;1904793;73;21207;-74
2021/10/14 08:01:49;;;;;;;4.87;2.60;;;27.80;98.20;;;;;;1904938;73;21628;-74
2021/10/14 08:04:20;;;;;;;4.67;3.02;;;27.80;98.10;;;;;;1880636;74;21214;-73
2021/10/14 08:06:51;;;;;;;5.65;3.25;;;27.80;98.10;;;;;;1869414;75;21624;-73
2021/10/14 08:09:23;;;;;;;4.12;2.58;;;27.80;98.20;;;;;;1881974;74;21247;-74
2021/10/14 08:11:53;;;;;;;3.67;2.58;;;27.80;98.30;;;;;;1890503;74;21746;-74
2021/10/14 08:14:24;;;;;;;4.30;2.80;;;27.80;98.10;;;;;;1899222;74;21076;-74
2021/10/14 08:16:55;;;;;;;5.42;2.87;;;27.80;98.10;;;;;;1930450;73;21583;-74
2021/10/14 08:19:25;;;;;;;4.12;2.77;;;27.80;97.90;;;;;;1914157;73;21153;-73
2021/10/14 08:21:56;;;;;;;5.35;2.72;;;27.80;98.00;;;;;;1873371;74;21239;-74
2021/10/14 08:24:27;;;;;;;4.25;2.30;;;27.70;98.00;;;;;;1913226;73;21636;-75
2021/10/14 08:26:58;;;;;;;6.22;2.60;;;27.70;98.00;;;;;;1900019;73;21616;-74
2021/10/14 08:29:31;;;;;;;5.42;2.58;;;27.70;98.10;;;;;;1906022;73;21161;-72
2021/10/14 08:32:02;;;;;;;3.72;2.35;;;27.70;98.20;;;;;;1912507;74;21126;-72
2021/10/14 08:34:33;;;;;;;5.30;3.08;;;27.70;98.10;;;;;;1892390;74;21287;-72
2021/10/14 08:37:03;;;;;;;5.67;2.90;;;27.70;98.40;;;;;;1900493;74;21115;-73
2021/10/14 08:39:34;;;;;;;4.53;2.62;;;27.70;98.40;;;;;;1874918;74;21752;-72
2021/10/14 08:42:05;;;;;;;4.40;2.40;;;27.70;98.50;;;;;;1904191;73;21122;-73
2021/10/14 08:44:37;;;;;;;4.25;2.55;;;27.70;98.50;;;;;;1894109;73;21610;-73
2021/10/14 08:47:08;;;;;;;2.83;2.33;;;27.70;98.30;;;;;;1892875;74;21146;-74
2021/10/14 08:49:42;;;;;;;4.55;2.67;;;27.70;98.10;;;;;;1866394;75;21680;-73
2021/10/14 08:52:14;;;;;;;3.72;2.15;;;27.70;98.00;;;;;;1889138;74;21166;-73
2021/10/14 08:54:45;;;;;;;3.00;2.30;;;27.70;97.90;;;;;;1918012;73;21213;-72
2021/10/14 08:57:15;;;;;;;3.42;2.35;;;27.60;97.90;;;;;;1924400;72;22250;-72
2021/10/14 08:59:46;;;;;;;3.37;2.12;;;27.60;97.80;;;;;;1910100;73;21185;-73
2021/10/14 09:02:19;;;;;;;4.97;2.80;;;27.60;98.00;;;;;;1891830;74;21203;-73
2021/10/14 09:04:55;;;;;;;4.15;2.12;;;27.50;98.00;;;;;;1892167;74;21261;-73
2021/10/14 09:07:27;;;;;;;3.75;2.42;;;27.50;98.10;;;;;;1893237;73;21188;-73
2021/10/14 09:10:01;;;;;;;4.97;2.58;;;27.50;98.10;;;;;;1863867;75;21214;-73
2021/10/14 09:12:34;;;;;;;5.20;2.77;;;27.50;98.20;;;;;;1896310;74;21177;-73
2021/10/14 09:15:08;;;;;;;4.25;3.55;;;27.50;98.20;;;;;;1888226;74;21598;-73
2021/10/14 09:17:41;;;;;;;4.05;2.60;;;27.50;98.30;;;;;;1891913;74;21134;-73
2021/10/14 09:20:15;;;;;;;4.22;2.40;;;27.50;98.30;;;;;;1886901;74;21201;-73
2021/10/14 09:22:48;;;;;;;4.90;2.60;;;27.40;98.40;;;;;;1886999;74;21154;-73
2021/10/14 09:25:21;;;;;;;4.60;2.50;;;27.40;98.60;;;;;;1861381;75;21255;-73
2021/10/14 09:27:52;;;;;;;3.65;2.47;;;27.40;98.60;;;;;;1907218;73;21178;-74
2021/10/14 09:30:23;;;;;;;5.87;3.30;;;27.30;98.90;;;;;;1877333;73;21157;-75
2021/10/14 09:32:54;;;;;;;5.40;3.02;;;27.30;99.00;;;;;;1932932;72;21213;-78
2021/10/14 09:35:25;;;;;;;9.25;3.55;;;27.30;99.10;;;;;;1940164;73;21638;-74
2021/10/14 09:37:56;;;;;;;4.72;2.52;;;27.20;99.30;;;;;;1913773;73;21239;-73
2021/10/14 09:40:28;;;;;;;3.80;3.10;;;27.20;99.30;;;;;;1885973;74;21791;-73
2021/10/14 09:43:01;;;;;;;6.15;2.77;;;27.20;99.40;;;;;;1892438;75;21149;-73
2021/10/14 09:45:33;;;;;;;4.90;2.75;;;27.10;99.30;;;;;;1905825;73;21146;-72
2021/10/14 09:48:08;;;;;;;8.20;4.85;;;27.10;99.50;;;;;;1902560;74;21512;-74
2021/10/14 09:50:41;;;;;;;4.10;2.52;;;27.10;99.50;;;;;;1893735;73;21642;-73
2021/10/14 09:53:14;;;;;;;3.37;2.62;;;27.10;99.60;;;;;;1912352;73;21684;-74
2021/10/14 09:55:47;;;;;;;5.03;2.42;;;27.10;99.70;;;;;;1909637;73;21209;-73
2021/10/14 09:58:18;;;;;;;4.53;2.40;;;27.00;99.80;;;;;;1927480;73;21078;-73
2021/10/14 10:00:49;;;;;;;4.20;2.50;;;27.00;99.90;;;;;;1896618;73;21148;-73
2021/10/14 10:03:22;;;;;;;7.10;2.50;;;26.90;99.90;;;;;;1880873;74;21169;-73
2021/10/14 10:05:55;;;;;;;4.60;2.70;;;26.90;99.90;;;;;;1895709;74;21154;-73
2021/10/14 10:08:28;;;;;;;5.90;2.77;;;26.90;99.90;;;;;;1869707;74;21248;-73
2021/10/14 10:11:02;;;;;;;6.00;2.40;;;26.90;99.90;;;;;;1915681;73;21111;-72
2021/10/14 10:13:33;;;;;;;4.05;2.15;;;26.90;99.90;;;;;;1903391;74;21130;-73
2021/10/14 10:16:06;;;;;;;3.42;1.70;;;26.80;99.90;;;;;;1903844;74;21689;-73
2021/10/14 10:18:40;;;;;;;3.90;2.12;;;26.80;99.70;;;;;;1901957;73;21591;-73
2021/10/14 10:21:13;;;;;;;3.58;2.00;;;26.80;99.90;;;;;;1920680;73;21219;-73
2021/10/14 10:23:46;;;;;;;3.47;1.95;;;26.70;99.90;;;;;;1927725;73;21228;-72
2021/10/14 10:26:20;;;;;;;4.80;3.17;;;26.70;99.90;;;;;;1847193;74;21244;-73
2021/10/14 10:28:51;;;;;;;6.28;4.08;;;26.70;99.90;;;;;;1898447;73;21133;-74
2021/10/14 10:31:22;;;;;;;7.20;4.83;;;26.60;99.90;;;;;;1897637;73;21674;-73
2021/10/14 10:33:59;;;;;;;5.25;4.05;;;26.60;99.90;;;;;;1894397;74;21572;-73
2021/10/14 10:36:29;;;;;;;4.10;2.67;;;26.60;99.90;;;;;;1892912;74;21493;-73
2021/10/14 10:39:00;;;;;;;5.60;3.12;;;26.60;99.90;;;;;;1890152;74;21635;-73
2021/10/14 10:41:31;;;;;;;5.72;3.40;;;26.50;99.90;;;;;;1895154;74;21156;-74
2021/10/14 10:44:02;;;;;;;3.12;2.42;;;26.50;99.90;;;;;;1899865;74;21711;-73
2021/10/14 10:46:33;;;;;;;6.20;3.50;;;26.50;99.90;;;;;;1893330;74;21128;-73
2021/10/14 10:49:07;;;;;;;6.83;3.83;;;26.50;99.90;;;;;;1901802;73;21068;-73
2021/10/14 10:51:38;;;;;;;4.03;2.85;;;26.40;99.90;;;;;;1903697;73;21630;-73
2021/10/14 10:54:11;;;;;;;5.28;2.85;;;26.40;99.90;;;;;;1890524;74;21252;-73
2021/10/14 10:56:42;;;;;;;5.53;3.15;;;26.40;99.90;;;;;;1884475;73;21202;-73
2021/10/14 10:59:15;;;;;;;3.05;2.55;;;26.30;99.90;;;;;;1887899;74;21214;-73
2021/10/14 11:01:46;;;;;;;5.00;2.30;;;26.30;99.90;;;;;;1897926;73;21352;-73
2021/10/14 11:04:17;;;;;;;4.53;3.20;;;26.30;99.90;;;;;;1901118;72;21656;-73
2021/10/14 11:06:50;;;;;;;6.37;2.50;;;26.30;99.90;;;;;;1902326;74;21168;-72
2021/10/14 11:09:27;;;;;;;8.33;2.67;;;26.30;99.90;;;;;;1900632;74;21714;-73
2021/10/14 11:11:57;;;;;;;4.85;2.27;;;26.30;99.90;;;;;;1897594;74;22396;-72
2021/10/14 11:14:30;;;;;;;4.62;2.30;;;26.20;99.90;;;;;;1895003;74;21226;-71
2021/10/14 11:17:03;;;;;;;5.00;2.37;;;26.20;99.90;;;;;;1922384;73;21150;-72
2021/10/14 11:19:38;;;;;;;4.17;1.80;;;26.30;99.90;;;;;;1902727;73;21223;-73
2021/10/14 11:22:11;;;;;;;6.47;2.58;;;26.20;99.80;;;;;;1914188;73;21092;-73
2021/10/14 11:24:44;;;;;;;5.53;3.63;;;26.20;99.60;;;;;;1917674;73;21660;-72
2021/10/14 11:27:18;;;;;;;7.50;2.65;;;26.20;99.70;;;;;;1900243;74;21909;-73
2021/10/14 11:29:50;;;;;;;3.70;2.05;;;26.20;99.60;;;;;;1916387;73;21758;-73
2021/10/14 11:32:32;;;;;;;5.70;3.87;;;26.20;99.60;;;;;;1905265;73;21134;-74
2021/10/14 11:34:53;;;;;;;8.08;5.25;;;26.20;99.60;;;;;;1892916;74;21185;-73
2021/10/14 11:37:24;;;;;;;8.53;5.80;;;26.20;99.50;;;;;;1923042;73;21122;-73
2021/10/14 11:39:56;;;;;;;6.72;3.75;;;26.20;99.60;;;;;;1893593;74;21196;-73
2021/10/14 11:42:28;;;;;;;4.45;2.90;;;26.20;99.60;;;;;;1889547;74;21336;-73
2021/10/14 11:45:00;;;;;;;3.70;2.20;;;26.20;99.70;;;;;;1889830;73;21145;-73
2021/10/14 11:47:33;;;;;;;4.47;2.17;;;26.20;99.80;;;;;;1919824;74;21186;-73
2021/10/14 11:50:06;;;;;;;3.55;2.08;;;26.20;99.90;;;;;;1891569;74;21169;-73
2021/10/14 11:52:37;;;;;;;3.40;2.58;;;26.20;99.90;;;;;;1881666;74;21099;-72
2021/10/14 11:55:11;;;;;;;7.65;2.20;;;26.20;99.90;;;;;;1897242;74;21174;-73
2021/10/14 11:57:42;;;;;;;3.70;2.75;;;26.20;99.90;;;;;;1889579;74;21177;-73
2021/10/14 12:00:13;;;;;;;4.30;3.22;;;26.20;99.90;;;;;;1923299;73;21268;-72
2021/10/14 12:02:45;;;;;;;6.08;2.52;;;26.20;99.90;;;;;;1906206;73;21225;-72
2021/10/14 12:05:16;;;;;;;7.87;5.45;;;26.20;99.90;;;;;;1864642;75;21142;-72
2021/10/14 12:07:49;;;;;;;3.80;2.10;;;26.10;99.90;;;;;;1901172;74;21668;-72
2021/10/14 12:10:22;;;;;;;3.75;1.57;;;26.10;99.90;;;;;;1902539;74;21609;-73
2021/10/14 12:12:55;;;;;;;3.70;1.45;;;26.10;99.90;;;;;;1888239;74;21134;-72
2021/10/14 12:15:27;;;;;;;3.65;1.60;;;26.10;99.90;;;;;;1895476;74;21132;-73
2021/10/14 12:17:58;;;;;;;3.10;1.50;;;26.00;99.90;;;;;;1892390;74;21465;-73
2021/10/14 12:20:29;;;;;;;3.58;1.45;;;26.00;99.90;;;;;;1901181;73;21146;-72
2021/10/14 12:23:03;;;;;;;3.45;2.20;;;26.00;99.90;;;;;;1869266;74;21269;-72
2021/10/14 12:25:37;;;;;;;5.97;4.97;;;26.00;99.90;;;;;;1923011;73;21170;-73
2021/10/14 12:28:11;;;;;;;7.92;4.20;;;26.00;99.90;;;;;;1866914;75;21585;-73
2021/10/14 12:30:42;;;;;;;5.55;3.58;;;26.00;99.90;;;;;;1895478;73;21119;-72
2021/10/14 12:33:17;;;;;;;5.70;3.15;;;26.00;99.90;;;;;;1902082;74;21165;-73
2021/10/14 12:35:50;;;;;;;12.03;6.55;;;26.00;99.90;;;;;;1899523;74;21091;-73
2021/10/14 12:38:21;;;;;;;7.40;4.22;;;26.00;99.90;;;;;;1901993;74;21078;-73
2021/10/14 12:40:54;;;;;;;5.87;3.22;;;26.00;99.90;;;;;;1875878;74;21996;-73
2021/10/14 12:43:30;;;;;;;6.12;4.50;;;25.90;99.90;;;;;;1912843;74;21158;-73
2021/10/14 12:46:11;;;;;;;3.83;2.10;;;26.00;99.90;;;;;;1899655;74;21221;-73
2021/10/14 12:53:41;;;;;;;5.92;3.10;;;26.00;99.90;;;;;;1883348;75;21129;-73
2021/10/14 12:56:14;;;;;;;3.90;2.75;;;26.00;99.90;;;;;;1872154;74;21111;-73
2021/10/14 12:58:46;;;;;;;11.40;8.53;;;26.00;99.90;;;;;;1868599;75;21237;-75
2021/10/14 13:01:19;;;;;;;8.78;5.55;;;26.00;99.90;;;;;;1878279;74;21718;-74
2021/10/14 13:03:50;;;;;;;6.35;4.25;;;26.00;99.90;;;;;;1887923;74;21163;-74
2021/10/14 13:06:21;;;;;;;10.10;5.78;;;26.00;99.90;;;;;;1872856;74;21196;-74
2021/10/14 13:08:57;;;;;;;6.72;4.30;;;26.00;99.90;;;;;;1918829;73;21159;-74
2021/10/14 13:11:29;;;;;;;6.70;4.37;;;25.90;99.90;;;;;;1912804;73;21209;-74